createdAt,value
2022-09-28T00:01:53.069Z,2.97
2022-09-28T00:08:54.936Z,2.53
2022-09-28T00:16:07.477Z,3.17
2022-09-28T00:23:09.095Z,2.65
2022-09-28T00:30:10.714Z,3.15
2022-09-28T00:37:13.118Z,2.92
2022-09-28T00:44:26.827Z,3.05
2022-09-28T00:51:28.448Z,3.17
2022-09-28T00:58:31.564Z,2.58
2022-09-28T01:05:33.869Z,2.80
2022-09-28T01:12:35.626Z,2.70
2022-09-28T01:19:46.508Z,2.90
2022-09-28T01:27:20.354Z,2.75
2022-09-28T01:34:36.281Z,2.70
2022-09-28T01:41:40.000Z,3.13
2022-09-28T01:48:53.599Z,2.60
2022-09-28T01:55:57.828Z,2.60
2022-09-28T02:03:07.869Z,2.60
2022-09-28T02:10:19.898Z,2.60
2022-09-28T02:17:21.467Z,2.75
2022-09-28T02:24:46.127Z,3.15
2022-09-28T02:31:55.028Z,3.25
2022-09-28T02:38:57.217Z,3.47
2022-09-28T02:46:06.639Z,3.58
2022-09-28T02:53:39.640Z,3.40
2022-09-28T03:00:51.418Z,3.80
2022-09-28T03:07:57.546Z,3.35
2022-09-28T03:15:26.675Z,3.58
2022-09-28T03:22:29.664Z,3.35
2022-09-28T03:29:33.035Z,4.38
2022-09-28T03:36:39.675Z,3.70
2022-09-28T03:43:41.326Z,3.47
2022-09-28T03:50:43.094Z,3.70
2022-09-28T03:57:44.779Z,3.80
2022-09-28T04:04:46.387Z,3.88
2022-09-28T04:12:03.218Z,3.30
2022-09-28T04:19:07.710Z,3.30
2022-09-28T04:26:25.433Z,3.53
2022-09-28T04:33:27.055Z,3.55
2022-09-28T04:40:29.015Z,4.78
2022-09-28T04:47:30.802Z,3.78
2022-09-28T04:54:51.073Z,4.20
2022-09-28T05:01:54.046Z,4.25
2022-09-28T05:09:14.818Z,3.92
2022-09-28T05:16:17.024Z,3.72
2022-09-28T05:23:45.707Z,3.70
2022-09-28T05:30:47.640Z,4.20
2022-09-28T05:38:04.383Z,4.10
2022-09-28T05:45:06.506Z,3.80
2022-09-28T05:52:08.543Z,3.90
2022-09-28T05:59:13.418Z,3.85
2022-09-28T06:06:16.125Z,4.18
2022-09-28T06:13:19.932Z,4.40
2022-09-28T06:20:21.634Z,3.95
2022-09-28T06:27:43.199Z,4.50
2022-09-28T06:34:45.368Z,4.15
2022-09-28T06:41:47.872Z,4.80
2022-09-28T06:48:52.837Z,4.30
2022-09-28T06:56:10.322Z,4.20
2022-09-28T07:03:17.357Z,5.03
2022-09-28T07:10:33.590Z,5.00
2022-09-28T07:18:02.416Z,4.80
2022-09-28T07:25:06.709Z,4.13
2022-09-28T07:32:26.893Z,4.63
2022-09-28T07:40:07.895Z,5.05
2022-09-28T07:47:12.593Z,5.00
2022-09-28T07:54:52.066Z,4.70
2022-09-28T08:02:20.203Z,4.22
2022-09-28T08:09:22.168Z,4.50
2022-09-28T08:16:47.491Z,4.53
2022-09-28T08:24:12.828Z,4.40
2022-09-28T08:31:14.661Z,4.43
2022-09-28T08:38:36.256Z,4.50
2022-09-28T08:46:10.338Z,5.22
2022-09-28T08:53:52.542Z,5.22
2022-09-28T09:00:59.187Z,5.07
2022-09-28T09:08:09.036Z,4.10
2022-09-28T09:15:32.861Z,4.30
2022-09-28T09:22:59.800Z,5.35
2022-09-28T09:30:20.206Z,4.20
2022-09-28T09:37:35.690Z,3.80
2022-09-28T09:45:14.090Z,3.33
2022-09-28T09:52:57.778Z,3.00
2022-09-28T09:59:59.558Z,2.08
2022-09-28T10:07:50.324Z,2.65
2022-09-28T10:14:52.403Z,2.15
2022-09-28T10:21:54.418Z,2.00
2022-09-28T10:29:01.707Z,1.98
2022-09-28T10:36:05.072Z,2.50
2022-09-28T10:43:16.334Z,2.40
2022-09-28T10:50:22.739Z,1.80
2022-09-28T10:57:36.804Z,1.90
2022-09-28T11:04:42.928Z,2.17
2022-09-28T11:11:44.614Z,1.90
2022-09-28T11:18:46.312Z,2.50
2022-09-28T11:25:58.993Z,2.47
2022-09-28T11:33:06.995Z,2.30
2022-09-28T11:40:43.255Z,2.42
2022-09-28T11:48:08.084Z,2.20
2022-09-28T11:55:33.666Z,2.75
2022-09-28T12:02:39.588Z,3.00
2022-09-28T12:09:50.475Z,2.28
2022-09-28T12:17:06.677Z,2.15
2022-09-28T12:24:33.564Z,2.10
2022-09-28T12:31:59.623Z,2.08
2022-09-28T12:39:40.883Z,1.83
2022-09-28T12:47:09.569Z,1.67
2022-09-28T12:54:36.680Z,1.90
2022-09-28T13:02:14.839Z,1.80
2022-09-28T13:09:26.221Z,1.90
2022-09-28T13:16:34.103Z,1.70
2022-09-28T13:23:39.205Z,1.80
2022-09-28T13:30:40.852Z,1.80
2022-09-28T13:37:42.573Z,1.88
2022-09-28T13:45:05.551Z,2.08
2022-09-28T13:52:13.644Z,1.67
2022-09-28T13:59:23.142Z,2.00
2022-09-28T14:06:31.698Z,2.17
2022-09-28T14:13:42.603Z,2.00
2022-09-28T14:21:09.206Z,2.00
2022-09-28T14:28:23.336Z,1.80
2022-09-28T14:35:38.671Z,2.00
2022-09-28T14:42:40.314Z,1.70
2022-09-28T14:49:45.547Z,2.28
2022-09-28T14:56:53.073Z,2.60
2022-09-28T15:03:55.749Z,2.20
2022-09-28T15:10:57.388Z,2.13
2022-09-28T15:18:33.221Z,2.95
2022-09-28T15:25:35.852Z,2.30
2022-09-28T15:32:37.450Z,2.40
2022-09-28T15:39:39.032Z,2.60
2022-09-28T15:46:42.412Z,2.33
2022-09-28T15:54:00.985Z,2.80
2022-09-28T16:01:35.745Z,2.55
2022-09-28T16:08:48.786Z,2.50
2022-09-28T16:15:58.785Z,2.50
2022-09-28T16:23:05.981Z,2.92
2022-09-28T16:30:21.578Z,2.60
2022-09-28T16:37:31.559Z,2.97
2022-09-28T16:44:35.862Z,2.60
2022-09-28T16:51:40.023Z,2.97
2022-09-28T16:58:42.427Z,3.33
2022-09-28T17:05:44.114Z,2.95
2022-09-28T17:12:45.930Z,3.33
2022-09-28T17:19:47.539Z,3.50
2022-09-28T17:26:49.762Z,3.78
2022-09-28T17:33:52.059Z,3.65
2022-09-28T17:40:53.680Z,5.72
2022-09-28T17:47:55.544Z,6.63
2022-09-28T17:54:57.089Z,5.30
2022-09-28T18:02:02.155Z,4.82
2022-09-28T18:09:04.396Z,6.38
2022-09-28T18:16:06.398Z,5.00
2022-09-28T18:23:08.017Z,3.50
2022-09-28T18:30:09.798Z,3.10
2022-09-28T18:37:11.390Z,4.25
2022-09-28T18:44:12.944Z,3.83
2022-09-28T18:51:14.547Z,3.42
2022-09-28T18:58:16.114Z,3.92
2022-09-28T19:05:18.739Z,3.90
2022-09-28T19:12:20.325Z,4.03
2022-09-28T19:19:21.967Z,3.97
2022-09-28T19:26:25.359Z,4.00
2022-09-28T19:33:27.089Z,4.97
2022-09-28T19:40:28.657Z,4.75
2022-09-28T19:47:30.467Z,4.78
2022-09-28T19:54:36.518Z,4.28
2022-09-28T20:01:38.565Z,4.20
2022-09-28T20:08:42.618Z,3.80
2022-09-28T20:15:45.724Z,3.92
2022-09-28T20:22:47.343Z,3.80
2022-09-28T20:29:48.961Z,4.53
2022-09-28T20:36:50.620Z,4.22
2022-09-28T20:43:53.541Z,4.55
2022-09-28T20:50:59.697Z,4.90
2022-09-28T20:58:04.437Z,5.10
2022-09-28T21:05:06.812Z,5.45
2022-09-28T21:12:09.120Z,5.38
2022-09-28T21:19:11.099Z,5.05
2022-09-28T21:26:29.031Z,4.45
2022-09-28T21:33:31.118Z,6.40
2022-09-28T21:40:32.775Z,4.75
2022-09-28T21:47:34.352Z,4.03
2022-09-28T21:54:37.269Z,4.10
2022-09-28T22:01:42.507Z,4.25
2022-09-28T22:08:44.605Z,3.85
2022-09-28T22:15:52.721Z,4.47
2022-09-28T22:22:54.300Z,3.88
2022-09-28T22:29:55.841Z,3.85
2022-09-28T22:37:02.883Z,3.90
2022-09-28T22:44:04.500Z,4.30
2022-09-28T22:51:06.485Z,3.63
2022-09-28T22:58:08.056Z,3.55
2022-09-28T23:05:10.312Z,4.13
2022-09-28T23:12:11.855Z,3.40
2022-09-28T23:19:13.429Z,3.63
2022-09-28T23:26:23.781Z,3.80
2022-09-28T23:33:25.367Z,3.90
2022-09-28T23:40:27.004Z,3.60
2022-09-28T23:47:28.599Z,4.10
2022-09-28T23:54:30.148Z,4.65
